Aéroport int. de Victoria, Colombie-Britannique

Conditions des dernières 24 heures

Date / Heure
(HAP)
Conditions Temp
(°F)
Humidité
(%)
Point de rosée
(°F)
Vent
(mph)
Pression (pouces) Vis
(mi)
Humidex
27 mai 2015
22:00 Généralement dégagé 57 83 52 NE 2 30.0 30 *
21:00 Généralement ensoleillé 58 81 53 calme 30.0 30 *
20:00 Généralement ensoleillé 61 75 53 ESE 7 30.0 30 *
19:00 Généralement ensoleillé 67 63 54 ESE 9 30.0 30 *
18:00 Généralement ensoleillé 68 61 54 ESE 9 30.0 30 *
17:00 Généralement ensoleillé 69   62 55 SE 7 30.0 30 74
16:00 Généralement ensoleillé 69   61 55 ESE 7 30.0 30 74
15:00 Généralement ensoleillé 69   60 55 ESE 6 30.0 30 74
14:00 Généralement ensoleillé 68 64 55 E 7 30.1 30 *
13:00 Partiellement nuageux 66 71 56 ESE 6 30.1 30 *
12:00 Généralement nuageux 62 76 54 E 5 30.1 30 *
11:00 Généralement nuageux 59 80 52 E 4 30.1 30 *
10:00 Nuageux 57 83 51 ESE 3 30.1 30 *
9:00 Nuageux 54 88 51 calme 30.1 30 *
8:00 Généralement nuageux 54 89 51 E 2 30.1 30 *
7:00 Généralement nuageux 53 91 51 E 4 30.1 30 *
6:00 Généralement nuageux 53 91 51 SE 3 30.1 30 *
5:00 Généralement nuageux 53 92 51 NE 4 30.0 30 *
4:00 Généralement nuageux 53 91 50 N 2 30.0 30 *
3:00 Partiellement nuageux 51   92 49 E 3 30.0 30 *
2:00 Partiellement nuageux 51   92 49 NE 4 30.0 30 *
1:00 Généralement nuageux 52 93 50 ENE 6 30.0 30 *
0:00 Généralement nuageux 54 90 51 NNE 2 30.0 30 *
26 mai 2015
23:00 Généralement nuageux 55 88 51 NE 3 30.0 30 *
22:00 Partiellement nuageux 56 85 52 ENE 5 30.0 30 *
N.D. non disponible
↑ température la plus haute
↓ température la plus basse
* Valeur non significative.

Si vous désirez plus de données historiques sur les conditions météo, s.v.p. visitez Données climatologiques en ligne.

Ce que nous faisons

Date de modification :